Time;durP1;ratioP1;P1;durP2;ratioP2;P2;SDS_P1;SDS_P2;PMS_P1;PMS_P2;Temp;Humidity;BMP_temperature;BMP_pressure;BME280_temperature;BME280_humidity;BME280_pressure;Samples;Min_cycle;Max_cycle;Signal;HPM_P1;HPM_P2
2024/01/12 00:02:50;;;;;;;39.53;15.37;;;;;;;-1.51;100.00;101868.09;5081342;58;1143045;-78
2024/01/12 00:07:56;;;;;;;36.47;14.53;;;;;;;-1.58;100.00;101878.52;5055178;57;1143097;-80
2024/01/12 00:13:01;;;;;;;36.10;12.73;;;;;;;-1.63;100.00;101865.58;5055944;57;1142943;-78
2024/01/12 00:18:07;;;;;;;36.80;11.57;;;;;;;-1.63;100.00;101869.90;5109897;58;1142870;-79
2024/01/12 00:23:13;;;;;;;35.50;10.80;;;;;;;-1.70;100.00;101870.82;5062681;58;1143532;-77
2024/01/12 00:28:19;;;;;;;41.70;16.53;;;;;;;-1.74;100.00;101872.56;5065098;58;1143378;-78
2024/01/12 00:33:25;;;;;;;42.53;13.53;;;;;;;-1.88;100.00;101876.53;5049560;57;1142871;-78
2024/01/12 00:38:30;;;;;;;44.50;16.03;;;;;;;-2.03;100.00;101873.14;5064262;57;1142892;-79
2024/01/12 00:43:36;;;;;;;39.67;17.73;;;;;;;-2.14;100.00;101875.78;5071432;57;1142689;-79
2024/01/12 00:48:43;;;;;;;51.53;19.10;;;;;;;-2.22;100.00;101874.94;5009103;58;1143149;-77
2024/01/12 00:53:48;;;;;;;47.45;18.17;;;;;;;-2.19;100.00;101868.02;5056468;57;1142804;-79
2024/01/12 00:58:54;;;;;;;45.83;18.90;;;;;;;-2.17;100.00;101874.50;5073503;58;1142944;-77
2024/01/12 01:04:01;;;;;;;38.90;16.23;;;;;;;-2.15;100.00;101884.00;5058831;57;1143126;-79
2024/01/12 01:09:07;;;;;;;35.23;15.37;;;;;;;-2.20;100.00;101882.27;5020266;58;1142778;-78
2024/01/12 01:14:13;;;;;;;45.60;17.50;;;;;;;-2.17;100.00;101882.27;5071790;58;1142693;-79
2024/01/12 01:19:19;;;;;;;53.33;22.30;;;;;;;-2.18;100.00;101885.30;5049382;58;1143145;-77
2024/01/12 01:24:28;;;;;;;43.57;19.37;;;;;;;-2.18;100.00;101889.61;5035986;58;1142827;-79
2024/01/12 01:29:33;;;;;;;32.03;13.83;;;;;;;-2.18;100.00;101889.18;5081953;58;1143292;-77
2024/01/12 01:34:38;;;;;;;38.47;13.23;;;;;;;-2.18;100.00;101886.59;5054087;57;1143274;-77
2024/01/12 01:39:44;;;;;;;26.43;12.10;;;;;;;-2.21;100.00;101882.70;5073531;58;1142704;-78
2024/01/12 01:44:49;;;;;;;29.47;11.47;;;;;;;-2.22;100.00;101890.48;4935352;59;1142520;-79
2024/01/12 01:49:56;;;;;;;30.10;10.97;;;;;;;-2.31;100.00;101882.31;4972137;58;1143153;-78
2024/01/12 01:55:02;;;;;;;30.37;12.23;;;;;;;-2.42;100.00;101874.98;5051348;58;1143029;-77
2024/01/12 02:00:08;;;;;;;24.23;11.77;;;;;;;-2.47;100.00;101866.81;5096169;58;1142690;-80
2024/01/12 02:05:21;;;;;;;31.70;12.83;;;;;;;-2.51;100.00;101876.31;5066307;58;1142692;-77
2024/01/12 02:10:26;;;;;;;31.17;12.87;;;;;;;-2.60;100.00;101877.22;5056438;57;1142688;-76
2024/01/12 02:15:32;;;;;;;22.70;10.20;;;;;;;-2.83;100.00;101890.61;5043528;58;1142725;-77
2024/01/12 02:20:38;;;;;;;24.37;10.93;;;;;;;-2.93;100.00;101889.76;5073810;58;1142632;-78
2024/01/12 02:25:44;;;;;;;27.60;9.30;;;;;;;-2.92;100.00;101894.08;5054125;58;1142805;-79
2024/01/12 02:30:50;;;;;;;23.43;11.53;;;;;;;-2.90;100.00;101891.02;5050376;58;1140801;-77
2024/01/12 02:35:56;;;;;;;21.33;9.90;;;;;;;-2.88;100.00;101900.09;5063187;58;1143195;-77
2024/01/12 02:41:01;;;;;;;18.07;8.70;;;;;;;-2.89;100.00;101906.12;5068712;57;1141268;-78
2024/01/12 02:46:07;;;;;;;23.77;9.90;;;;;;;-2.97;100.00;101895.79;5051921;58;1140958;-77
2024/01/12 02:51:12;;;;;;;26.43;12.03;;;;;;;-3.00;100.00;101903.55;5034322;58;1141276;-78
2024/01/12 02:56:18;;;;;;;53.00;16.90;;;;;;;-3.10;100.00;101883.72;5060149;57;1142663;-77
2024/01/12 03:01:24;;;;;;;30.53;12.47;;;;;;;-3.17;100.00;101884.56;5021381;58;1143032;-79
2024/01/12 03:06:29;;;;;;;48.47;16.87;;;;;;;-3.20;100.00;101885.42;5101473;58;1142962;-78
2024/01/12 03:11:35;;;;;;;45.50;15.95;;;;;;;-3.28;100.00;101895.34;5038081;57;1143082;-78
2024/01/12 03:16:40;;;;;;;49.70;17.40;;;;;;;-3.33;100.00;101890.58;5016898;58;1142582;-77
2024/01/12 03:21:46;;;;;;;44.37;14.87;;;;;;;-3.59;100.00;101895.72;5066825;57;1142750;-78
2024/01/12 03:26:51;;;;;;;41.03;14.97;;;;;;;-3.58;100.00;101895.73;5058018;58;1143563;-78
2024/01/12 03:31:57;;;;;;;41.53;14.17;;;;;;;-3.50;100.00;101882.80;5050758;57;1142728;-78
2024/01/12 03:37:03;;;;;;;21.00;9.07;;;;;;;-3.45;100.00;101878.94;5012130;58;1143311;-77
2024/01/12 03:42:10;;;;;;;28.63;12.80;;;;;;;-3.57;100.00;101883.66;5030052;58;1141629;-76
2024/01/12 03:47:16;;;;;;;19.07;7.58;;;;;;;-3.73;100.00;101887.06;5053702;57;1143481;-77
2024/01/12 03:52:21;;;;;;;39.37;13.57;;;;;;;-3.91;100.00;101883.98;5089929;57;1140465;-78
2024/01/12 03:57:27;;;;;;;24.93;10.07;;;;;;;-3.96;100.00;101886.97;4938352;58;1142792;-78
2024/01/12 04:02:33;;;;;;;16.47;8.27;;;;;;;-3.95;100.00;101875.36;4909735;57;1143607;-78
2024/01/12 04:07:39;;;;;;;31.17;9.17;;;;;;;-3.95;100.00;101866.73;4962843;57;1140932;-71
2024/01/12 04:12:45;;;;;;;37.77;11.50;;;;;;;-3.91;100.00;101873.22;4934677;57;1140880;-70
2024/01/12 04:17:50;;;;;;;23.00;8.80;;;;;;;-3.83;100.00;101882.31;4938610;58;1142943;-76
2024/01/12 04:22:56;;;;;;;20.83;8.90;;;;;;;-3.79;100.00;101890.91;4952198;58;1140687;-71
2024/01/12 04:28:02;;;;;;;67.70;16.77;;;;;;;-3.85;100.00;101880.14;4894431;58;1140812;-70
2024/01/12 04:33:07;;;;;;;102.93;20.07;;;;;;;-3.76;100.00;101889.63;4930939;57;1142923;-69
2024/01/12 04:38:13;;;;;;;39.73;11.65;;;;;;;-3.81;100.00;101887.45;4942110;57;1144871;-71
2024/01/12 04:43:18;;;;;;;34.00;11.67;;;;;;;-3.87;100.00;101877.12;4966882;57;1142893;-76
2024/01/12 04:48:24;;;;;;;50.20;15.67;;;;;;;-3.86;100.00;101873.67;4981251;57;1143297;-81
2024/01/12 04:53:30;;;;;;;47.20;16.20;;;;;;;-3.76;100.00;101875.42;4959903;57;1143363;-78
2024/01/12 04:58:35;;;;;;;23.87;8.40;;;;;;;-3.66;100.00;101867.68;4998593;57;1142673;-81
2024/01/12 05:03:43;;;;;;;19.97;8.77;;;;;;;-3.67;100.00;101859.95;5007869;57;1140598;-84
2024/01/12 05:08:48;;;;;;;22.57;9.20;;;;;;;-3.67;100.00;101856.07;4993786;56;1140627;-79
2024/01/12 05:13:54;;;;;;;18.07;8.03;;;;;;;-3.65;100.00;101851.31;5007862;57;1140827;-83
2024/01/12 05:19:00;;;;;;;18.50;9.33;;;;;;;-3.66;100.00;101848.29;4955731;57;1140911;-80
2024/01/12 05:24:06;;;;;;;60.77;16.47;;;;;;;-3.66;100.00;101844.84;5017287;57;1140697;-79
2024/01/12 05:29:14;;;;;;;38.90;10.98;;;;;;;-3.67;100.00;101850.47;4951458;57;1143231;-80
2024/01/12 05:34:19;;;;;;;20.05;9.20;;;;;;;-3.67;100.00;101845.73;4968262;56;1142905;-80
2024/01/12 05:39:25;;;;;;;24.27;8.67;;;;;;;-3.66;100.00;101849.58;4954857;57;1141092;-72
2024/01/12 05:44:31;;;;;;;32.87;12.17;;;;;;;-3.65;100.00;101859.06;4907744;57;1141015;-76
2024/01/12 05:49:38;;;;;;;28.57;10.87;;;;;;;-3.73;100.00;101867.25;4973542;55;1142996;-77
2024/01/12 05:54:43;;;;;;;23.80;11.73;;;;;;;-3.81;100.00;101876.69;5026243;56;1142968;-76
2024/01/12 05:59:49;;;;;;;27.80;11.23;;;;;;;-3.80;100.00;101882.72;4957393;56;1143116;-75
2024/01/12 06:04:54;;;;;;;29.33;13.27;;;;;;;-3.76;100.00;101884.47;5003913;57;1142744;-76
2024/01/12 06:10:00;;;;;;;27.43;10.70;;;;;;;-3.75;100.00;101892.23;5012661;57;1142942;-77
2024/01/12 06:15:07;;;;;;;33.40;11.87;;;;;;;-3.76;100.00;101889.63;4920684;58;1142815;-82
2024/01/12 06:20:13;;;;;;;40.78;17.27;;;;;;;-3.77;100.00;101881.02;4963257;56;1142788;-75
2024/01/12 06:25:19;;;;;;;34.50;15.63;;;;;;;-3.73;100.00;101891.81;4805457;58;1164621;-74
2024/01/12 06:30:24;;;;;;;29.57;14.00;;;;;;;-3.76;100.00;101903.42;4934657;58;1143039;-81
2024/01/12 06:35:30;;;;;;;39.00;15.85;;;;;;;-3.76;100.00;101896.96;4848441;59;1143450;-76
2024/01/12 06:40:35;;;;;;;34.10;13.53;;;;;;;-3.73;100.00;101906.02;4796994;58;1143396;-77
2024/01/12 06:45:41;;;;;;;27.95;11.97;;;;;;;-3.71;100.00;101900.86;4793937;58;1142915;-79
2024/01/12 06:50:46;;;;;;;32.90;14.43;;;;;;;-3.74;100.00;101897.84;4939218;56;1143131;-80
2024/01/12 06:55:52;;;;;;;37.47;16.73;;;;;;;-3.73;100.00;101901.28;4957651;56;1142929;-77
2024/01/12 07:00:58;;;;;;;47.67;21.27;;;;;;;-3.63;100.00;101897.86;4970570;56;1143166;-77
2024/01/12 07:06:05;;;;;;;170.93;67.40;;;;;;;-3.49;100.00;101887.54;4932583;55;1143010;-80
2024/01/12 07:11:10;;;;;;;88.35;33.83;;;;;;;-3.34;100.00;101887.56;4846540;58;1145108;-79
2024/01/12 07:16:16;;;;;;;203.53;70.00;;;;;;;-3.24;100.00;101877.25;4860819;58;1142769;-76
2024/01/12 07:21:21;;;;;;;520.62;148.78;;;;;;;-3.15;100.00;101887.16;4852649;58;1144987;-73
2024/01/12 07:26:27;;;;;;;323.27;91.67;;;;;;;-3.04;100.00;101894.05;4857842;57;1156583;-83
2024/01/12 07:31:35;;;;;;;150.42;39.00;;;;;;;-2.98;100.00;101886.30;4968856;57;1145146;-80
2024/01/12 07:36:40;;;;;;;62.00;22.17;;;;;;;-3.00;100.00;101882.84;4992904;57;1145316;-80
2024/01/12 07:41:46;;;;;;;51.07;19.37;;;;;;;-3.03;100.00;101876.80;4968685;57;1143162;-75
2024/01/12 07:46:51;;;;;;;117.47;36.83;;;;;;;-3.07;100.00;101864.75;4992540;56;1142816;-77
2024/01/12 07:51:57;;;;;;;38.20;15.93;;;;;;;-3.01;100.00;101856.53;4925699;57;1145306;-80
2024/01/12 07:57:03;;;;;;;101.97;33.20;;;;;;;-2.99;100.00;101857.83;4913195;57;1142949;-77
2024/01/12 08:02:08;;;;;;;53.40;19.70;;;;;;;-3.03;100.00;101833.66;4906630;57;1144954;-75
2024/01/12 08:07:15;;;;;;;44.35;17.45;;;;;;;-3.04;100.00;101830.64;4916893;57;1143212;-80
2024/01/12 08:12:20;;;;;;;31.73;14.43;;;;;;;-3.02;100.00;101826.77;4893218;56;1143069;-79
2024/01/12 08:17:26;;;;;;;33.97;13.93;;;;;;;-3.01;100.00;101823.31;4896349;56;1142933;-75
2024/01/12 08:22:32;;;;;;;30.97;13.67;;;;;;;-3.00;100.00;101815.55;4910819;56;1152368;-82
2024/01/12 08:27:38;;;;;;;28.30;11.97;;;;;;;-2.92;100.00;101818.15;4901680;56;1143178;-73
2024/01/12 08:32:43;;;;;;;30.77;12.90;;;;;;;-2.85;100.00;101832.78;4913714;57;1142935;-80
2024/01/12 08:37:49;;;;;;;28.70;10.80;;;;;;;-2.81;100.00;101830.63;4938767;57;1143013;-79
2024/01/12 08:42:57;;;;;;;23.73;10.90;;;;;;;-2.73;100.00;101828.02;4926265;55;1142924;-80
2024/01/12 08:48:01;;;;;;;27.77;11.97;;;;;;;-2.63;100.00;101821.97;4906338;57;1142952;-79
2024/01/12 08:53:09;;;;;;;36.53;11.47;;;;;;;-2.53;100.00;101819.77;4913591;57;1143079;-77
2024/01/12 08:58:15;;;;;;;33.00;12.17;;;;;;;-2.53;100.00;101809.41;4981874;56;1213635;-81
2024/01/12 09:03:20;;;;;;;31.67;13.33;;;;;;;-2.46;100.00;101811.12;4971759;56;1142810;-85
2024/01/12 09:08:26;;;;;;;34.23;14.68;;;;;;;-2.44;100.00;101823.61;4961400;57;1143236;-75
2024/01/12 09:13:31;;;;;;;31.43;14.47;;;;;;;-2.42;100.00;101817.13;5005535;56;1142938;-79
2024/01/12 09:18:37;;;;;;;37.13;14.27;;;;;;;-2.39;100.00;101804.17;4946105;57;1143071;-82
2024/01/12 09:23:44;;;;;;;31.97;12.67;;;;;;;-2.35;100.00;101792.94;4900058;57;1143321;-79
2024/01/12 09:28:49;;;;;;;32.57;14.70;;;;;;;-2.29;100.00;101802.83;4957722;56;1142718;-81
2024/01/12 09:33:55;;;;;;;38.60;18.35;;;;;;;-2.26;100.00;101786.41;4847395;57;1142651;-81
2024/01/12 09:39:01;;;;;;;39.07;16.47;;;;;;;-2.24;100.00;101774.31;4842179;58;1142669;-80
2024/01/12 09:44:09;;;;;;;95.97;31.03;;;;;;;-2.21;100.00;101770.41;4910272;57;1143017;-77
2024/01/12 09:49:15;;;;;;;63.57;22.93;;;;;;;-2.21;100.00;101780.34;4951181;58;1143157;-80
2024/01/12 09:54:20;;;;;;;50.50;18.60;;;;;;;-2.20;100.00;101782.50;4909052;57;1142898;-81
2024/01/12 09:59:27;;;;;;;41.05;18.37;;;;;;;-2.18;100.00;101767.38;4901827;57;1143021;-81
2024/01/12 10:04:33;;;;;;;54.50;21.48;;;;;;;-2.12;100.00;101762.58;4926473;57;1142815;-81
2024/01/12 10:09:38;;;;;;;45.03;17.17;;;;;;;-2.10;100.00;101743.13;4914429;57;1143128;-79
2024/01/12 10:14:44;;;;;;;93.40;28.43;;;;;;;-2.07;100.00;101731.02;4894371;57;1142829;-79
2024/01/12 10:19:51;;;;;;;88.77;28.67;;;;;;;-2.04;100.00;101734.90;4923296;57;1143102;-74
2024/01/12 10:25:05;;;;;;;34.80;13.97;;;;;;;-2.04;100.00;101726.27;4905500;57;1142945;-75
2024/01/12 10:30:11;;;;;;;38.00;13.73;;;;;;;-2.13;100.00;101728.02;4835569;58;1142915;-76
2024/01/12 10:35:20;;;;;;;45.30;17.57;;;;;;;-2.17;100.00;101726.34;4907445;57;1143426;-76
2024/01/12 10:40:26;;;;;;;57.53;16.40;;;;;;;-2.18;100.00;101711.66;4925165;58;1143039;-78
2024/01/12 10:45:32;;;;;;;60.50;25.47;;;;;;;-2.17;100.00;101695.25;4925827;58;1142995;-80
2024/01/12 10:50:42;;;;;;;47.07;18.97;;;;;;;-2.12;100.00;101677.05;4937028;57;1143162;-76
2024/01/12 10:55:52;;;;;;;38.63;15.23;;;;;;;-2.10;100.00;101659.77;4944893;56;1142988;-75
2024/01/12 11:00:58;;;;;;;47.90;19.23;;;;;;;-2.05;100.00;101654.12;4891069;57;1143334;-77
2024/01/12 11:06:04;;;;;;;70.07;22.63;;;;;;;-2.01;100.00;101634.23;4896766;56;1143121;-79
2024/01/12 11:11:13;;;;;;;42.78;15.90;;;;;;;-1.94;100.00;101622.48;4897207;56;1143230;-82
2024/01/12 11:16:21;;;;;;;39.80;14.40;;;;;;;-1.88;100.00;101614.66;4960727;57;1142924;-81
2024/01/12 11:21:27;;;;;;;43.40;15.23;;;;;;;-1.82;100.00;101614.59;4942194;56;1143067;-80
2024/01/12 11:26:33;;;;;;;27.90;12.80;;;;;;;-1.71;100.00;101618.84;4940861;57;1142756;-81
2024/01/12 11:31:38;;;;;;;33.38;15.48;;;;;;;-1.64;100.00;101623.93;4950904;56;1143101;-75
2024/01/12 11:36:44;;;;;;;41.33;17.40;;;;;;;-1.58;100.00;101621.72;4935760;57;1143015;-74
2024/01/12 11:41:52;;;;;;;44.20;17.62;;;;;;;-1.55;100.00;101630.78;4838496;59;1142817;-78
2024/01/12 11:46:59;;;;;;;45.37;17.13;;;;;;;-1.53;100.00;101621.25;4992892;56;1142842;-79
2024/01/12 11:52:08;;;;;;;41.63;18.17;;;;;;;-1.51;100.00;101618.17;4965612;58;1142855;-78
2024/01/12 11:57:15;;;;;;;33.48;14.03;;;;;;;-1.48;100.00;101593.50;4975230;56;1142938;-78
2024/01/12 12:02:21;;;;;;;34.37;14.27;;;;;;;-1.48;100.00;101571.45;4990073;57;1143258;-74
2024/01/12 12:07:28;;;;;;;34.83;14.58;;;;;;;-1.53;100.00;101558.99;4973467;57;1143022;-75
2024/01/12 12:12:34;;;;;;;30.93;13.80;;;;;;;-1.54;100.00;101538.67;4973247;57;1144026;-80
2024/01/12 12:17:46;;;;;;;29.70;11.93;;;;;;;-1.54;100.00;101550.78;4994879;57;1143099;-79
2024/01/12 12:22:53;;;;;;;29.07;11.73;;;;;;;-1.55;100.00;101543.88;4939723;57;1142917;-76
2024/01/12 12:27:58;;;;;;;40.50;18.40;;;;;;;-1.55;100.00;101536.95;4957100;57;1143144;-75
2024/01/12 12:33:05;;;;;;;31.70;12.80;;;;;;;-1.51;100.00;101537.75;4918323;57;1143096;-80
2024/01/12 12:38:10;;;;;;;47.00;18.17;;;;;;;-1.48;100.00;101525.61;5008217;56;1143142;-79
2024/01/12 12:43:16;;;;;;;31.00;12.17;;;;;;;-1.46;100.00;101532.95;4957773;56;1143422;-83
2024/01/12 12:48:27;;;;;;;34.73;15.37;;;;;;;-1.47;100.00;101516.95;4981748;57;1143017;-81
2024/01/12 12:53:33;;;;;;;33.87;14.03;;;;;;;-1.43;100.00;101535.51;4988988;57;1143111;-77
2024/01/12 12:58:38;;;;;;;21.70;10.87;;;;;;;-1.40;100.00;101538.52;4960346;56;1142893;-79
2024/01/12 13:03:44;;;;;;;28.37;11.00;;;;;;;-1.38;100.00;101534.60;4957205;56;1143663;-81
2024/01/12 13:08:50;;;;;;;29.57;12.67;;;;;;;-1.40;100.00;101515.59;4951783;57;1142831;-77
2024/01/12 13:13:55;;;;;;;34.13;13.07;;;;;;;-1.43;100.00;101512.59;4909444;57;1142931;-77
2024/01/12 13:19:01;;;;;;;29.97;12.57;;;;;;;-1.44;100.00;101510.88;4904967;58;1142904;-78
2024/01/12 13:24:09;;;;;;;28.23;13.28;;;;;;;-1.44;100.00;101501.36;4982545;58;1143111;-77
2024/01/12 13:29:14;;;;;;;27.80;13.33;;;;;;;-1.45;100.00;101489.27;4993902;57;1143153;-80
2024/01/12 13:34:19;;;;;;;58.90;28.53;;;;;;;-1.40;100.00;101480.57;4953265;56;1143271;-78
2024/01/12 13:39:25;;;;;;;19.73;9.60;;;;;;;-1.38;100.00;101465.84;4931379;56;1142922;-77
2024/01/12 13:44:30;;;;;;;22.03;11.73;;;;;;;-1.36;100.00;101462.77;4944995;57;1141003;-81
2024/01/12 13:49:36;;;;;;;33.30;12.37;;;;;;;-1.32;100.00;101464.45;4940164;57;1142894;-75
2024/01/12 13:54:42;;;;;;;25.53;10.90;;;;;;;-1.30;100.00;101468.73;4942374;57;1142814;-83
2024/01/12 13:59:47;;;;;;;22.87;12.30;;;;;;;-1.29;100.00;101458.78;4987408;57;1142925;-75
2024/01/12 14:04:53;;;;;;;29.43;14.17;;;;;;;-1.27;100.00;101445.78;4990348;56;1142876;-76
2024/01/12 14:10:00;;;;;;;26.97;12.83;;;;;;;-1.26;100.00;101449.66;4972113;56;1142904;-76
2024/01/12 14:15:07;;;;;;;29.67;13.80;;;;;;;-1.24;100.00;101440.56;4963647;57;1143232;-72
2024/01/12 14:20:13;;;;;;;19.57;9.53;;;;;;;-1.22;100.00;101431.02;4970788;57;1143199;-76
2024/01/12 14:25:21;;;;;;;16.77;8.90;;;;;;;-1.20;100.00;101431.39;4942167;56;1140941;-79
2024/01/12 14:30:27;;;;;;;17.05;8.15;;;;;;;-1.21;100.00;101436.16;4930847;55;1140646;-79
2024/01/12 14:35:32;;;;;;;15.90;7.67;;;;;;;-1.21;100.00;101440.05;4967677;57;1141082;-80
2024/01/12 14:40:38;;;;;;;20.08;8.38;;;;;;;-1.23;100.00;101428.00;4956867;56;1140679;-81
2024/01/12 14:45:43;;;;;;;18.10;7.83;;;;;;;-1.24;100.00;101431.03;4962860;55;1141070;-79
2024/01/12 14:50:51;;;;;;;13.93;5.73;;;;;;;-1.25;100.00;101440.14;4930934;57;1141263;-74
2024/01/12 14:55:57;;;;;;;12.03;7.07;;;;;;;-1.27;100.00;101428.48;4912065;57;1140640;-76
2024/01/12 15:01:03;;;;;;;14.00;8.10;;;;;;;-1.26;100.00;101426.74;4981700;56;1140913;-72
2024/01/12 15:06:09;;;;;;;16.15;9.60;;;;;;;-1.27;100.00;101419.84;4956866;56;1141215;-74
2024/01/12 15:11:15;;;;;;;19.63;10.80;;;;;;;-1.27;100.00;101414.65;4939146;56;1140855;-78
2024/01/12 15:16:20;;;;;;;13.70;8.77;;;;;;;-1.27;100.00;101415.50;4932396;57;1143021;-75
2024/01/12 15:21:26;;;;;;;15.67;8.90;;;;;;;-1.27;100.00;101418.09;4921379;57;1140916;-80
2024/01/12 15:26:31;;;;;;;14.40;7.75;;;;;;;-1.26;100.00;101407.28;4954856;57;1140998;-77
2024/01/12 15:31:38;;;;;;;14.38;8.35;;;;;;;-1.24;100.00;101402.48;4953613;56;1140977;-79
2024/01/12 15:36:43;;;;;;;19.50;8.97;;;;;;;-1.24;100.00;101396.44;4904290;58;1140722;-82
2024/01/12 15:41:49;;;;;;;16.17;9.90;;;;;;;-1.26;100.00;101405.98;4967107;56;1140725;-84
2024/01/12 15:46:54;;;;;;;15.43;8.57;;;;;;;-1.26;100.00;101412.03;4950333;57;1141146;-77
2024/01/12 15:52:00;;;;;;;15.13;10.25;;;;;;;-1.26;100.00;101426.30;4828339;58;1140808;-78
2024/01/12 15:57:05;;;;;;;17.27;9.17;;;;;;;-1.25;100.00;101407.70;4805611;59;1143158;-73
2024/01/12 16:02:11;;;;;;;23.77;12.27;;;;;;;-1.25;100.00;101413.75;4975895;57;1140806;-77
2024/01/12 16:07:18;;;;;;;24.03;13.57;;;;;;;-1.25;100.00;101394.72;4965726;56;1143068;-77
2024/01/12 16:12:24;;;;;;;23.43;9.00;;;;;;;-1.28;100.00;101390.44;4904885;57;1143159;-82
2024/01/12 16:17:29;;;;;;;22.62;12.10;;;;;;;-1.29;100.00;101393.05;5002158;57;1140920;-76
2024/01/12 16:22:35;;;;;;;23.67;10.83;;;;;;;-1.32;100.00;101376.22;4969322;56;1143671;-78
2024/01/12 16:27:40;;;;;;;30.43;15.50;;;;;;;-1.33;100.00;101373.20;4996563;57;1142748;-73
2024/01/12 16:32:47;;;;;;;28.30;14.90;;;;;;;-1.33;100.00;101381.84;4967453;57;1143236;-75
2024/01/12 16:37:52;;;;;;;29.83;12.63;;;;;;;-1.34;100.00;101398.30;4998515;56;1142872;-78
2024/01/12 16:42:58;;;;;;;22.20;11.77;;;;;;;-1.35;100.00;101378.41;4950062;56;1142707;-80
2024/01/12 16:48:05;;;;;;;27.80;11.33;;;;;;;-1.34;100.00;101382.73;4983823;57;1143444;-84
2024/01/12 16:53:11;;;;;;;30.97;16.33;;;;;;;-1.35;100.00;101392.69;5018461;57;1142668;-80
2024/01/12 16:58:17;;;;;;;28.40;14.27;;;;;;;-1.33;100.00;101400.45;4989122;56;1142912;-71
2024/01/12 17:03:23;;;;;;;25.20;13.03;;;;;;;-1.33;100.00;101392.67;4962585;56;1143123;-77
2024/01/12 17:08:28;;;;;;;32.60;17.55;;;;;;;-1.35;100.00;101385.34;4954823;57;1145870;-76
2024/01/12 17:13:34;;;;;;;33.47;16.87;;;;;;;-1.33;100.00;101380.98;4924813;56;1142998;-80
2024/01/12 17:18:40;;;;;;;26.17;12.70;;;;;;;-1.32;100.00;101361.51;4933503;57;1143030;-72
2024/01/12 17:23:46;;;;;;;28.67;13.70;;;;;;;-1.32;100.00;101361.95;4989997;57;1142794;-80
2024/01/12 17:28:51;;;;;;;28.33;13.87;;;;;;;-1.33;100.00;101335.58;4986883;57;1142832;-75
2024/01/12 17:33:57;;;;;;;24.63;12.83;;;;;;;-1.33;100.00;101327.36;4983292;57;1142685;-73
2024/01/12 17:39:02;;;;;;;44.50;18.50;;;;;;;-1.33;100.00;101341.63;4925342;57;1143046;-69
2024/01/12 17:44:08;;;;;;;33.77;14.53;;;;;;;-1.31;100.00;101339.88;4930022;57;1142934;-76
2024/01/12 17:49:13;;;;;;;24.37;12.17;;;;;;;-1.30;100.00;101342.89;4938157;57;1142928;-76
2024/01/12 17:54:23;;;;;;;23.43;12.20;;;;;;;-1.27;100.00;101343.28;4898310;57;1143115;-75
2024/01/12 17:59:28;;;;;;;25.70;13.37;;;;;;;-1.27;100.00;101341.55;4894722;57;1143031;-74
2024/01/12 18:04:35;;;;;;;25.32;12.23;;;;;;;-1.28;100.00;101338.97;4936602;57;1143088;-77
2024/01/12 18:09:41;;;;;;;24.55;12.58;;;;;;;-1.27;100.00;101333.76;4953225;56;1143039;-75
2024/01/12 18:14:48;;;;;;;24.90;10.80;;;;;;;-1.25;100.00;101324.22;5010801;56;1142896;-71
2024/01/12 18:19:53;;;;;;;15.03;8.73;;;;;;;-1.25;100.00;101328.11;4949380;57;1143037;-76
2024/01/12 18:24:59;;;;;;;26.17;12.43;;;;;;;-1.26;100.00;101334.18;4965239;57;1141107;-74
2024/01/12 18:30:06;;;;;;;15.97;9.07;;;;;;;-1.22;100.00;101330.62;4938641;57;1143303;-76
2024/01/12 18:35:11;;;;;;;20.60;9.53;;;;;;;-1.20;100.00;101309.84;4910715;57;1140845;-76
2024/01/12 18:40:17;;;;;;;18.00;10.57;;;;;;;-1.19;100.00;101307.67;4962697;57;1141072;-77
2024/01/12 18:45:22;;;;;;;21.77;10.07;;;;;;;-1.19;100.00;101301.18;4965850;56;1143806;-77
2024/01/12 18:50:28;;;;;;;14.50;7.27;;;;;;;-1.16;100.00;101289.02;5005136;57;1143180;-74
2024/01/12 18:55:34;;;;;;;20.48;10.20;;;;;;;-1.15;100.00;101276.45;4976526;56;1141174;-76
2024/01/12 19:00:39;;;;;;;15.00;9.18;;;;;;;-1.13;100.00;101275.98;4924452;56;1143068;-74
2024/01/12 19:05:45;;;;;;;15.23;8.17;;;;;;;-1.10;100.00;101282.88;4971744;57;1141104;-74
2024/01/12 19:10:51;;;;;;;10.03;6.60;;;;;;;-1.09;100.00;101277.66;4977254;57;1140714;-75
2024/01/12 19:15:59;;;;;;;13.93;7.97;;;;;;;-1.08;100.00;101266.83;4964129;56;1140822;-77
2024/01/12 19:21:04;;;;;;;14.23;7.43;;;;;;;-1.03;100.00;101267.59;4952809;55;1141138;-73
2024/01/12 19:26:09;;;;;;;14.37;5.13;;;;;;;-1.04;100.00;101249.44;4976853;56;1140987;-75
2024/01/12 19:31:25;;;;;;;15.97;7.83;;;;;;;-0.99;100.00;101241.98;4950062;56;1140894;-74
2024/01/12 19:36:31;;;;;;;14.30;7.45;;;;;;;-0.97;100.00;101231.14;4935666;57;1140713;-72
2024/01/12 19:41:36;;;;;;;7.45;4.87;;;;;;;-0.96;100.00;101242.38;4941623;57;1140858;-76
2024/01/12 19:46:43;;;;;;;16.12;7.47;;;;;;;-0.96;100.00;101228.96;4963767;56;1138705;-73
2024/01/12 19:51:48;;;;;;;16.07;6.27;;;;;;;-0.93;100.00;101210.73;4967694;57;1141013;-72
2024/01/12 19:56:54;;;;;;;24.33;9.47;;;;;;;-0.93;100.00;101215.92;4980404;56;1141066;-74
2024/01/12 20:02:00;;;;;;;13.50;6.87;;;;;;;-0.92;100.00;101214.19;4933233;56;1140761;-76
2024/01/12 20:07:06;;;;;;;13.87;6.50;;;;;;;-0.92;100.00;101202.06;4947724;56;1140988;-75
2024/01/12 20:12:12;;;;;;;16.40;7.00;;;;;;;-0.92;100.00;101207.70;4949675;56;1141277;-76
2024/01/12 20:17:17;;;;;;;13.03;5.47;;;;;;;-0.93;100.00;101196.89;5043782;56;1140977;-73
2024/01/12 20:22:23;;;;;;;10.80;5.50;;;;;;;-0.94;100.00;101195.18;5011840;56;1140767;-74
2024/01/12 20:27:30;;;;;;;9.43;5.30;;;;;;;-0.94;100.00;101189.98;5047599;56;1140787;-75
2024/01/12 20:32:35;;;;;;;7.60;3.93;;;;;;;-0.94;100.00;101193.88;5005130;56;1138608;-75
2024/01/12 20:37:42;;;;;;;8.05;4.50;;;;;;;-0.94;100.00;101174.41;4993319;56;1138632;-80
2024/01/12 20:42:48;;;;;;;8.38;4.17;;;;;;;-0.95;100.00;101190.88;4961369;57;1138764;-82
2024/01/12 20:47:53;;;;;;;18.07;9.17;;;;;;;-0.95;100.00;101184.38;4981699;57;1138836;-82
2024/01/12 20:52:59;;;;;;;9.67;5.43;;;;;;;-0.94;100.00;101179.60;4969382;56;1141083;-85
2024/01/12 20:58:05;;;;;;;9.03;5.27;;;;;;;-0.93;100.00;101173.08;4979127;56;1138676;-81
2024/01/12 21:03:10;;;;;;;9.37;5.47;;;;;;;-0.91;100.00;101176.92;4953575;57;1139085;-81
2024/01/12 21:08:16;;;;;;;8.90;4.47;;;;;;;-0.88;100.00;101171.67;4979912;56;1138425;-84
2024/01/12 21:13:21;;;;;;;11.93;5.60;;;;;;;-0.87;100.00;101170.78;4958087;57;1138770;-80
2024/01/12 21:18:27;;;;;;;11.63;6.10;;;;;;;-0.86;100.00;101165.56;4972880;57;1140957;-80
2024/01/12 21:23:32;;;;;;;14.23;5.67;;;;;;;-0.85;100.00;101169.02;4987949;57;1141015;-80
2024/01/12 21:28:38;;;;;;;11.20;4.90;;;;;;;-0.87;100.00;101159.95;4866518;58;1141073;-81
2024/01/12 21:33:44;;;;;;;14.20;6.28;;;;;;;-0.89;100.00;101156.98;4957856;57;1140935;-80
2024/01/12 21:38:50;;;;;;;11.73;5.73;;;;;;;-0.90;100.00;101155.27;4985989;57;1140910;-80
2024/01/12 21:43:55;;;;;;;16.30;8.47;;;;;;;-0.92;100.00;101150.13;4938882;56;1140746;-82
2024/01/12 21:49:01;;;;;;;11.97;6.57;;;;;;;-0.92;100.00;101157.06;4949602;57;1140975;-81
2024/01/12 21:54:07;;;;;;;12.03;7.80;;;;;;;-0.91;100.00;101156.15;4977846;57;1140780;-79
2024/01/12 21:59:13;;;;;;;15.20;8.33;;;;;;;-0.90;100.00;101151.37;5012222;57;1140691;-76
2024/01/12 22:04:19;;;;;;;16.13;7.93;;;;;;;-0.90;100.00;101150.07;4936958;57;1141046;-82
2024/01/12 22:09:24;;;;;;;17.17;7.57;;;;;;;-0.89;100.00;101133.17;4895384;57;1140886;-83
2024/01/12 22:14:30;;;;;;;19.10;8.93;;;;;;;-0.89;100.00;101127.12;4895014;57;1141175;-78
2024/01/12 22:19:36;;;;;;;12.04;7.64;;;;;;;-0.88;100.00;101124.94;4957091;57;1141197;-81
2024/01/12 22:24:41;;;;;;;15.40;8.37;;;;;;;-0.89;100.00;101120.18;4924697;56;1141181;-77
2024/01/12 22:29:47;;;;;;;15.03;5.22;;;;;;;-0.89;100.00;101117.59;4990541;58;1140613;-78